Time;durP1;ratioP1;P1;durP2;ratioP2;P2;SDS_P1;SDS_P2;PMS_P1;PMS_P2;Temp;Humidity;BMP_temperature;BMP_pressure;BME280_temperature;BME280_humidity;BME280_pressure;Samples;Min_cycle;Max_cycle;Signal;HPM_P1;HPM_P2
2022/06/27 00:02:23;;;;;;;10.10;9.40;;;18.00;99.90;;;;;;5060280;28;20545;-67
2022/06/27 00:04:52;;;;;;;13.33;7.93;;;18.00;99.90;;;;;;5052651;28;20459;-66
2022/06/27 00:07:19;;;;;;;9.30;8.70;;;18.10;99.90;;;;;;5054088;28;20511;-66
2022/06/27 00:09:46;;;;;;;9.43;8.37;;;18.00;99.90;;;;;;5057534;28;20511;-67
2022/06/27 00:12:13;;;;;;;8.40;7.57;;;18.00;99.90;;;;;;5051698;28;20471;-67
2022/06/27 00:14:40;;;;;;;8.90;8.00;;;17.90;99.90;;;;;;5053643;28;20476;-67
2022/06/27 00:17:07;;;;;;;9.43;8.73;;;17.90;99.90;;;;;;5053613;28;20615;-67
2022/06/27 00:19:34;;;;;;;8.40;7.90;;;17.90;99.90;;;;;;5047139;28;20993;-67
2022/06/27 00:22:04;;;;;;;10.33;8.97;;;17.90;99.90;;;;;;5048417;28;20464;-67
2022/06/27 00:24:31;;;;;;;10.50;9.33;;;17.80;99.90;;;;;;5056441;28;21009;-67
2022/06/27 00:26:58;;;;;;;9.57;8.73;;;17.80;99.90;;;;;;5051104;28;20467;-68
2022/06/27 00:29:26;;;;;;;9.97;9.27;;;17.70;99.90;;;;;;5057202;28;20871;-66
2022/06/27 00:31:53;;;;;;;9.63;9.07;;;17.80;99.90;;;;;;5052632;28;20464;-66
2022/06/27 00:34:20;;;;;;;9.70;9.10;;;17.70;99.90;;;;;;5063254;28;20463;-66
2022/06/27 00:36:47;;;;;;;9.70;8.80;;;17.60;99.90;;;;;;5047702;28;20463;-67
2022/06/27 00:39:15;;;;;;;9.53;8.93;;;17.50;99.90;;;;;;5047020;28;20492;-67
2022/06/27 00:41:43;;;;;;;10.73;9.93;;;17.50;99.90;;;;;;5053519;28;20462;-67
2022/06/27 00:44:10;;;;;;;10.33;9.47;;;17.60;99.90;;;;;;5055675;28;20470;-67
2022/06/27 00:46:37;;;;;;;13.00;10.20;;;17.50;99.90;;;;;;5048512;28;20979;-66
2022/06/27 00:49:03;;;;;;;16.43;9.40;;;17.40;99.90;;;;;;5052156;28;20466;-67
2022/06/27 00:51:30;;;;;;;10.57;9.53;;;17.40;99.90;;;;;;5052475;28;20467;-67
2022/06/27 00:53:58;;;;;;;11.70;10.67;;;17.40;99.90;;;;;;5052271;28;20463;-67
2022/06/27 00:56:26;;;;;;;11.23;10.50;;;17.60;99.90;;;;;;5054488;28;20468;-67
2022/06/27 00:58:53;;;;;;;14.70;11.20;;;17.50;99.90;;;;;;5047798;28;20494;-67
2022/06/27 01:01:20;;;;;;;11.20;10.30;;;17.60;99.90;;;;;;5048777;28;20597;-66
2022/06/27 01:03:46;;;;;;;12.30;11.20;;;17.60;99.90;;;;;;5053626;28;20475;-67
2022/06/27 01:06:13;;;;;;;12.37;11.40;;;17.70;99.90;;;;;;5058681;28;21002;-67
2022/06/27 01:08:41;;;;;;;12.40;11.43;;;17.80;99.90;;;;;;5054954;28;20578;-66
2022/06/27 01:11:08;;;;;;;12.10;11.07;;;17.70;99.90;;;;;;5053688;28;20475;-68
2022/06/27 01:13:37;;;;;;;12.03;11.03;;;17.80;99.90;;;;;;5056955;28;20901;-67
2022/06/27 01:16:04;;;;;;;12.37;11.47;;;17.70;99.90;;;;;;5052838;28;20951;-67
2022/06/27 01:18:31;;;;;;;12.00;11.07;;;17.80;99.90;;;;;;5048017;28;20502;-68
2022/06/27 01:20:57;;;;;;;12.43;11.63;;;17.80;99.90;;;;;;5061028;28;20462;-66
2022/06/27 01:23:27;;;;;;;13.10;12.10;;;17.80;99.90;;;;;;5059143;28;20472;-67
2022/06/27 01:25:56;;;;;;;12.87;11.67;;;17.80;99.90;;;;;;5053949;28;20458;-66
2022/06/27 01:28:23;;;;;;;12.70;11.53;;;17.90;99.90;;;;;;5054465;28;20473;-66
2022/06/27 01:30:50;;;;;;;14.17;12.90;;;17.80;99.90;;;;;;5054452;28;20478;-67
2022/06/27 01:33:17;;;;;;;13.80;12.70;;;17.80;99.90;;;;;;5058654;28;20841;-68
2022/06/27 01:35:44;;;;;;;13.00;11.93;;;17.90;99.90;;;;;;5055635;28;20476;-66
2022/06/27 01:38:11;;;;;;;12.63;11.70;;;17.90;99.90;;;;;;5058087;28;20479;-66
2022/06/27 01:40:40;;;;;;;13.07;11.97;;;17.90;99.90;;;;;;5049505;28;20462;-66
2022/06/27 01:43:07;;;;;;;14.03;12.77;;;17.80;99.90;;;;;;5053782;28;20463;-67
2022/06/27 01:45:34;;;;;;;12.30;11.40;;;17.80;99.90;;;;;;5058876;28;20470;-66
2022/06/27 01:48:01;;;;;;;13.03;11.90;;;17.80;99.90;;;;;;5052949;28;20478;-67
2022/06/27 01:50:31;;;;;;;13.27;12.07;;;17.80;99.90;;;;;;5052980;28;20459;-66
2022/06/27 01:53:01;;;;;;;13.87;12.73;;;17.70;99.90;;;;;;5058690;28;20525;-68
2022/06/27 01:55:28;;;;;;;13.30;12.13;;;17.70;99.90;;;;;;5058800;28;20460;-66
2022/06/27 01:57:57;;;;;;;16.37;13.27;;;17.70;99.90;;;;;;5061915;28;20463;-67
2022/06/27 02:00:25;;;;;;;13.70;12.43;;;17.60;99.90;;;;;;5055992;28;20910;-66
2022/06/27 02:02:52;;;;;;;15.03;12.80;;;17.60;99.90;;;;;;5062303;28;20486;-66
2022/06/27 02:05:20;;;;;;;14.83;13.33;;;17.70;99.90;;;;;;5054760;28;20520;-68
2022/06/27 02:07:49;;;;;;;14.17;12.93;;;17.70;99.90;;;;;;5053096;28;20493;-68
2022/06/27 02:10:16;;;;;;;13.60;12.30;;;17.70;99.90;;;;;;5056281;28;20484;-66
2022/06/27 02:12:43;;;;;;;17.83;14.00;;;17.70;99.90;;;;;;5056808;28;20460;-66
2022/06/27 02:15:13;;;;;;;16.23;14.00;;;17.70;99.90;;;;;;5055209;28;20455;-66
2022/06/27 02:17:40;;;;;;;16.23;12.80;;;17.60;99.90;;;;;;5047944;28;20456;-67
2022/06/27 02:20:08;;;;;;;15.90;13.47;;;17.60;99.90;;;;;;5053583;28;20494;-68
2022/06/27 02:22:35;;;;;;;18.47;13.57;;;17.70;99.90;;;;;;5054072;28;20475;-67
2022/06/27 02:25:03;;;;;;;14.13;12.77;;;17.70;99.90;;;;;;5056528;28;20567;-66
2022/06/27 02:27:32;;;;;;;14.70;13.23;;;17.70;99.90;;;;;;5056596;28;20463;-67
2022/06/27 02:29:58;;;;;;;14.03;12.50;;;17.70;99.90;;;;;;5057170;28;20949;-66
2022/06/27 02:32:27;;;;;;;14.33;13.07;;;17.70;99.90;;;;;;5057490;28;20463;-66
2022/06/27 02:34:57;;;;;;;16.73;13.37;;;17.60;99.90;;;;;;5056702;28;20463;-66
2022/06/27 02:37:24;;;;;;;13.63;12.57;;;17.60;99.90;;;;;;5052897;28;20471;-66
2022/06/27 02:39:52;;;;;;;14.60;13.30;;;17.60;99.90;;;;;;5055586;28;20494;-66
2022/06/27 02:42:22;;;;;;;13.97;12.60;;;17.60;99.90;;;;;;5052541;28;20981;-66
2022/06/27 02:44:49;;;;;;;14.70;13.20;;;17.60;99.90;;;;;;5060862;28;20474;-67
2022/06/27 02:47:20;;;;;;;14.57;13.13;;;17.60;99.90;;;;;;5056371;28;20708;-68
2022/06/27 02:49:48;;;;;;;13.90;12.60;;;17.60;99.90;;;;;;5055250;28;20466;-67
2022/06/27 02:52:20;;;;;;;16.37;13.43;;;17.60;99.90;;;;;;5057903;28;20462;-66
2022/06/27 02:54:50;;;;;;;14.33;12.93;;;17.70;99.90;;;;;;5052922;28;20472;-66
2022/06/27 02:57:34;;;;;;;13.77;12.67;;;17.70;99.90;;;;;;5061396;28;20475;-66
2022/06/27 03:00:03;;;;;;;15.13;13.93;;;17.80;99.90;;;;;;5053278;28;20545;-67
2022/06/27 03:02:32;;;;;;;14.33;13.13;;;17.90;99.90;;;;;;5052179;28;20474;-67
2022/06/27 03:05:01;;;;;;;15.77;14.27;;;17.90;99.90;;;;;;5050003;28;20464;-66
2022/06/27 03:07:28;;;;;;;16.43;14.77;;;17.70;99.90;;;;;;5053129;28;20478;-67
2022/06/27 03:10:01;;;;;;;16.63;15.00;;;17.80;99.90;;;;;;5058678;28;20501;-67
2022/06/27 03:12:30;;;;;;;16.93;15.33;;;17.80;99.90;;;;;;5054443;28;20459;-68
2022/06/27 03:14:57;;;;;;;17.07;15.53;;;18.00;99.90;;;;;;5053246;28;20459;-68
2022/06/27 03:17:24;;;;;;;16.43;15.03;;;18.10;99.90;;;;;;5054234;28;20686;-67
2022/06/27 03:19:51;;;;;;;16.87;15.00;;;18.00;99.90;;;;;;5047630;28;20500;-68
2022/06/27 03:22:19;;;;;;;17.20;15.70;;;17.90;99.90;;;;;;5059782;28;20819;-66
2022/06/27 03:24:46;;;;;;;17.73;13.90;;;18.00;99.90;;;;;;5049728;28;20848;-68
2022/06/27 03:27:13;;;;;;;15.10;13.80;;;18.00;99.90;;;;;;5056250;28;20458;-67
2022/06/27 03:29:40;;;;;;;17.70;16.10;;;18.00;99.90;;;;;;5055677;28;20464;-68
2022/06/27 03:32:09;;;;;;;17.70;16.20;;;18.00;99.90;;;;;;5053880;28;20464;-67
2022/06/27 03:34:36;;;;;;;17.60;16.07;;;18.00;99.90;;;;;;5053711;28;20466;-66
2022/06/27 03:37:03;;;;;;;19.17;17.47;;;18.00;99.90;;;;;;5055940;28;20965;-67
2022/06/27 03:39:32;;;;;;;18.20;16.40;;;18.10;99.90;;;;;;5053559;28;20474;-66
2022/06/27 03:41:59;;;;;;;21.10;19.10;;;18.10;99.90;;;;;;5057095;28;20547;-67
2022/06/27 03:44:29;;;;;;;19.13;17.30;;;18.20;99.90;;;;;;5051880;28;20470;-66
2022/06/27 03:46:57;;;;;;;18.10;16.57;;;18.20;99.90;;;;;;5058326;28;20527;-67
2022/06/27 03:52:08;;;;;;;18.60;16.90;;;18.30;99.90;;;;;;5050536;28;20454;-66
2022/06/27 03:54:36;;;;;;;18.60;17.10;;;18.40;99.90;;;;;;5053497;28;20980;-67
2022/06/27 03:57:04;;;;;;;17.90;16.13;;;18.30;99.90;;;;;;5056071;28;20470;-67
2022/06/27 03:59:32;;;;;;;17.60;16.30;;;18.30;99.90;;;;;;5055375;28;20471;-69
2022/06/27 04:01:58;;;;;;;18.87;16.83;;;18.20;99.90;;;;;;5046712;28;20467;-66
2022/06/27 04:04:25;;;;;;;23.90;18.30;;;18.20;99.90;;;;;;5028719;28;20800;-67
2022/06/27 04:06:52;;;;;;;19.93;16.63;;;18.10;99.90;;;;;;5024743;28;20466;-67
2022/06/27 04:09:19;;;;;;;17.43;16.03;;;18.00;99.90;;;;;;5025834;28;20710;-66
2022/06/27 04:11:47;;;;;;;18.37;16.67;;;18.10;99.90;;;;;;5025843;28;20464;-68
2022/06/27 04:14:14;;;;;;;18.27;16.67;;;18.10;99.90;;;;;;5027240;28;20467;-66
2022/06/27 04:16:41;;;;;;;19.37;17.57;;;18.10;99.90;;;;;;5026682;28;20495;-67
2022/06/27 04:19:08;;;;;;;20.90;18.70;;;17.90;99.90;;;;;;5027166;28;20483;-68
2022/06/27 04:21:35;;;;;;;17.50;16.20;;;17.80;99.90;;;;;;5027228;28;20827;-67
2022/06/27 04:24:02;;;;;;;18.60;16.83;;;17.80;99.90;;;;;;5035742;28;20956;-66
2022/06/27 04:26:29;;;;;;;17.60;15.80;;;17.80;99.90;;;;;;5030869;28;20464;-66
2022/06/27 04:28:57;;;;;;;15.40;14.10;;;17.80;99.90;;;;;;5027417;28;20455;-67
2022/06/27 04:31:24;;;;;;;21.43;19.10;;;17.80;99.90;;;;;;5028012;28;20468;-67
2022/06/27 04:33:51;;;;;;;15.30;13.70;;;17.70;99.90;;;;;;5028323;28;20482;-68
2022/06/27 04:36:18;;;;;;;19.77;15.00;;;17.60;99.90;;;;;;5027861;28;20471;-68
2022/06/27 04:38:46;;;;;;;15.07;13.70;;;17.70;99.90;;;;;;5027271;28;20459;-69
2022/06/27 04:41:13;;;;;;;17.57;13.90;;;17.80;99.90;;;;;;5028712;28;20471;-68
2022/06/27 04:43:41;;;;;;;15.70;14.20;;;17.90;99.90;;;;;;5029171;28;20466;-67
2022/06/27 04:46:09;;;;;;;15.47;14.00;;;18.10;99.90;;;;;;5027686;28;20462;-68
2022/06/27 04:48:37;;;;;;;16.33;14.70;;;18.10;99.90;;;;;;5026765;28;20467;-67
2022/06/27 04:51:06;;;;;;;16.47;14.80;;;18.20;99.90;;;;;;5029277;28;20472;-67
2022/06/27 04:53:33;;;;;;;15.90;14.10;;;18.30;99.90;;;;;;5028874;28;21252;-68
2022/06/27 04:56:00;;;;;;;15.70;14.10;;;18.40;99.90;;;;;;5027669;28;20818;-67
2022/06/27 04:58:26;;;;;;;16.77;15.03;;;18.50;99.90;;;;;;5028652;28;20474;-68
2022/06/27 05:00:54;;;;;;;16.30;14.60;;;18.60;99.90;;;;;;5027983;28;20902;-68
2022/06/27 05:03:23;;;;;;;20.80;15.33;;;18.60;99.90;;;;;;5028500;28;20579;-68
2022/06/27 05:05:51;;;;;;;17.90;16.10;;;18.80;99.90;;;;;;5028226;28;20990;-67
2022/06/27 05:08:18;;;;;;;16.33;14.73;;;19.00;99.90;;;;;;5028146;28;20526;-67
2022/06/27 05:10:45;;;;;;;16.57;15.27;;;19.20;99.90;;;;;;5027964;28;20478;-67
2022/06/27 05:13:12;;;;;;;16.73;15.17;;;19.30;99.90;;;;;;5027530;28;22394;-67
2022/06/27 05:15:39;;;;;;;16.80;15.30;;;19.40;99.90;;;;;;5028110;28;20684;-67
2022/06/27 05:18:07;;;;;;;20.20;15.43;;;19.50;99.90;;;;;;5026676;28;20465;-67
2022/06/27 05:20:35;;;;;;;22.50;16.63;;;19.70;99.90;;;;;;5027102;28;22531;-68
2022/06/27 05:23:02;;;;;;;19.67;16.17;;;19.70;99.90;;;;;;5027009;28;20464;-68
2022/06/27 05:25:29;;;;;;;17.40;16.00;;;20.00;99.90;;;;;;5025578;28;20491;-68
2022/06/27 05:27:58;;;;;;;16.13;14.93;;;20.00;99.90;;;;;;5027020;28;20470;-67
2022/06/27 05:30:25;;;;;;;18.20;16.67;;;20.10;99.90;;;;;;5029166;28;20487;-68
2022/06/27 05:32:51;;;;;;;16.93;15.40;;;20.10;99.90;;;;;;5027964;28;20456;-67
2022/06/27 05:35:20;;;;;;;20.47;17.83;;;20.00;99.90;;;;;;5027209;28;20462;-68
2022/06/27 05:37:49;;;;;;;19.37;17.73;;;20.00;99.90;;;;;;5028108;28;20828;-68
2022/06/27 05:40:17;;;;;;;21.53;19.53;;;20.10;99.90;;;;;;5026047;28;20613;-67
2022/06/27 05:42:44;;;;;;;20.40;18.37;;;19.80;99.90;;;;;;5028419;28;20538;-67
2022/06/27 05:45:11;;;;;;;19.80;18.10;;;19.70;99.90;;;;;;5028021;28;20452;-66
2022/06/27 05:47:39;;;;;;;20.70;18.70;;;19.80;99.90;;;;;;5027600;28;20841;-68
2022/06/27 05:50:07;;;;;;;20.30;17.97;;;19.90;99.90;;;;;;5027460;28;20472;-67
2022/06/27 05:52:34;;;;;;;19.60;17.60;;;19.80;99.90;;;;;;5028597;28;20566;-68
2022/06/27 05:55:05;;;;;;;19.97;18.37;;;19.70;99.90;;;;;;5030421;28;20600;-68
2022/06/27 05:57:33;;;;;;;18.83;16.97;;;19.80;99.90;;;;;;5047275;28;20466;-68
2022/06/27 06:00:00;;;;;;;18.67;16.50;;;19.70;99.90;;;;;;5031059;28;21629;-68
2022/06/27 06:02:27;;;;;;;18.80;17.00;;;19.50;99.90;;;;;;5026604;28;20498;-68
2022/06/27 06:04:54;;;;;;;19.43;17.53;;;19.60;99.90;;;;;;5029672;28;20469;-67
2022/06/27 06:07:22;;;;;;;24.30;17.30;;;19.60;99.90;;;;;;5028227;28;21164;-68
2022/06/27 06:09:50;;;;;;;18.73;16.83;;;19.60;99.90;;;;;;5026737;28;20524;-68
2022/06/27 06:12:18;;;;;;;19.37;17.70;;;19.80;99.90;;;;;;5027869;28;20769;-68
2022/06/27 06:14:46;;;;;;;18.17;16.60;;;20.00;99.90;;;;;;5028584;28;20470;-69
2022/06/27 06:19:54;;;;;;;16.97;15.67;;;20.20;99.90;;;;;;5029797;28;20574;-68
2022/06/27 06:22:21;;;;;;;18.10;16.30;;;20.30;99.90;;;;;;5028024;28;20567;-68
2022/06/27 06:24:49;;;;;;;17.13;15.80;;;20.70;99.90;;;;;;5028058;28;20483;-69
2022/06/27 06:27:17;;;;;;;17.67;15.83;;;20.80;99.90;;;;;;5026822;28;20563;-68
2022/06/27 06:29:45;;;;;;;18.30;16.60;;;20.80;99.90;;;;;;5028666;28;20548;-70
2022/06/27 06:32:12;;;;;;;17.70;16.30;;;20.40;99.90;;;;;;5027534;28;20458;-69
2022/06/27 06:34:40;;;;;;;17.90;16.30;;;20.60;99.90;;;;;;5029249;28;20948;-69
2022/06/27 06:37:09;;;;;;;20.13;18.03;;;20.50;99.90;;;;;;5029845;28;20559;-69
2022/06/27 06:39:36;;;;;;;20.50;18.50;;;20.60;99.90;;;;;;5026883;28;20483;-70
2022/06/27 06:42:04;;;;;;;20.63;18.60;;;20.60;99.90;;;;;;5028820;28;21508;-69
2022/06/27 06:44:32;;;;;;;20.80;18.90;;;20.50;99.90;;;;;;5028840;28;20468;-68
2022/06/27 06:46:59;;;;;;;18.37;17.00;;;20.60;99.90;;;;;;5029044;28;20472;-70
2022/06/27 06:49:27;;;;;;;19.00;17.30;;;20.90;99.90;;;;;;5029217;28;20463;-68
2022/06/27 06:51:53;;;;;;;20.20;18.47;;;21.00;99.90;;;;;;5030057;28;20459;-69
2022/06/27 06:54:22;;;;;;;21.43;19.47;;;21.20;99.90;;;;;;5029260;28;20833;-68
2022/06/27 06:56:51;;;;;;;20.17;18.53;;;21.30;99.90;;;;;;5029190;28;20471;-68
2022/06/27 06:59:19;;;;;;;19.77;18.20;;;21.40;99.90;;;;;;5037915;28;20600;-68
2022/06/27 07:01:47;;;;;;;20.90;18.97;;;21.40;99.90;;;;;;5054958;28;20767;-68
2022/06/27 07:04:15;;;;;;;22.43;20.53;;;21.60;99.90;;;;;;5037879;28;20455;-69
2022/06/27 07:06:42;;;;;;;21.17;19.47;;;21.70;99.90;;;;;;5029018;28;20468;-68
2022/06/27 07:09:09;;;;;;;19.97;18.47;;;21.80;99.90;;;;;;5028152;28;20494;-68
2022/06/27 07:11:37;;;;;;;20.70;19.13;;;21.80;99.90;;;;;;5029175;28;20486;-68
2022/06/27 07:14:05;;;;;;;21.57;20.00;;;21.90;99.90;;;;;;5029736;28;20466;-69
2022/06/27 07:16:32;;;;;;;20.87;19.30;;;22.10;99.90;;;;;;5029322;28;20480;-68
2022/06/27 07:19:01;;;;;;;23.03;21.23;;;22.10;99.90;;;;;;5028888;28;20467;-68
2022/06/27 07:21:31;;;;;;;24.13;20.50;;;21.60;99.90;;;;;;5029446;28;20500;-69
2022/06/27 07:24:00;;;;;;;21.53;19.77;;;21.60;99.90;;;;;;5029127;28;20484;-69
2022/06/27 07:26:28;;;;;;;21.90;20.20;;;21.80;99.90;;;;;;5028998;28;21375;-68
2022/06/27 07:28:55;;;;;;;20.93;19.17;;;22.10;99.90;;;;;;5028548;28;21248;-69
2022/06/27 07:31:22;;;;;;;20.57;18.77;;;22.20;99.90;;;;;;5028621;28;20468;-68
2022/06/27 07:33:54;;;;;;;21.27;19.63;;;22.10;99.90;;;;;;5029219;28;20463;-67
2022/06/27 07:36:25;;;;;;;21.67;20.07;;;21.80;99.90;;;;;;5028749;28;20970;-68
2022/06/27 07:38:54;;;;;;;20.50;19.10;;;21.90;99.90;;;;;;5028303;28;20471;-67
2022/06/27 07:41:23;;;;;;;20.67;18.97;;;22.00;99.90;;;;;;5028498;28;22486;-67
2022/06/27 07:43:51;;;;;;;19.33;17.97;;;22.10;99.90;;;;;;5027726;28;20463;-68
2022/06/27 07:46:20;;;;;;;21.27;19.57;;;22.10;99.90;;;;;;5027662;28;20483;-69
2022/06/27 07:48:47;;;;;;;20.60;18.80;;;22.10;99.90;;;;;;5028429;28;20614;-70
2022/06/27 07:51:16;;;;;;;20.63;18.87;;;22.30;99.90;;;;;;5027266;28;20464;-69
2022/06/27 07:53:46;;;;;;;21.47;19.93;;;22.40;99.90;;;;;;5028013;28;20467;-70
2022/06/27 07:56:14;;;;;;;22.10;20.40;;;22.40;99.90;;;;;;5031813;28;20475;-67
2022/06/27 07:58:41;;;;;;;21.50;19.67;;;22.20;99.90;;;;;;5049238;28;20490;-69
2022/06/27 08:01:09;;;;;;;21.97;20.37;;;21.90;99.90;;;;;;5042404;28;20511;-68
2022/06/27 08:03:44;;;;;;;23.33;20.10;;;21.30;99.90;;;;;;5027072;28;20897;-68
2022/06/27 08:06:13;;;;;;;22.10;20.40;;;21.40;99.90;;;;;;5026968;28;21003;-68
2022/06/27 08:08:41;;;;;;;21.93;20.13;;;21.30;99.90;;;;;;5027862;28;20518;-68
2022/06/27 08:11:11;;;;;;;24.37;22.07;;;21.30;99.90;;;;;;5026073;28;21038;-68
2022/06/27 08:13:38;;;;;;;23.40;21.47;;;21.20;99.90;;;;;;5027347;28;20495;-68
2022/06/27 08:16:06;;;;;;;23.30;21.20;;;21.40;99.90;;;;;;5027480;28;20520;-69
2022/06/27 08:18:38;;;;;;;23.73;21.73;;;21.50;99.90;;;;;;5027061;28;20551;-68
2022/06/27 08:21:06;;;;;;;21.90;19.97;;;21.60;99.90;;;;;;5027109;28;20487;-68
2022/06/27 08:23:34;;;;;;;22.17;20.37;;;21.60;99.90;;;;;;5027542;28;20491;-67
2022/06/27 08:26:01;;;;;;;23.20;21.33;;;21.60;99.90;;;;;;5027925;28;20521;-67
2022/06/27 08:28:29;;;;;;;23.27;21.43;;;21.50;99.90;;;;;;5026971;28;20470;-68
2022/06/27 08:31:00;;;;;;;23.57;21.43;;;21.80;99.90;;;;;;5027151;28;20459;-70
2022/06/27 08:33:27;;;;;;;22.73;20.83;;;21.80;99.90;;;;;;5027791;28;21510;-70
2022/06/27 08:35:57;;;;;;;22.47;20.60;;;21.80;99.90;;;;;;5027561;28;20688;-68
2022/06/27 08:38:24;;;;;;;22.80;20.30;;;21.50;99.90;;;;;;5027458;28;20472;-69
2022/06/27 08:40:54;;;;;;;21.90;20.27;;;21.60;99.90;;;;;;5027072;28;20608;-68
2022/06/27 08:43:21;;;;;;;20.57;19.10;;;22.00;99.90;;;;;;5026421;28;20946;-68
2022/06/27 08:45:50;;;;;;;20.97;19.20;;;22.30;99.90;;;;;;5027127;28;20476;-70
2022/06/27 08:48:17;;;;;;;22.50;20.80;;;22.10;99.90;;;;;;5056024;28;20458;-67
2022/06/27 08:50:46;;;;;;;22.63;20.83;;;21.80;99.90;;;;;;5054132;28;20464;-68
2022/06/27 08:53:14;;;;;;;20.80;19.20;;;21.90;99.90;;;;;;5036945;28;21176;-67
2022/06/27 08:55:45;;;;;;;21.40;19.77;;;22.10;99.90;;;;;;5041666;28;20549;-67
2022/06/27 08:58:13;;;;;;;23.33;21.03;;;21.90;99.90;;;;;;5052682;28;20986;-67
2022/06/27 09:00:45;;;;;;;21.87;19.83;;;22.00;99.90;;;;;;5047971;28;20874;-68
2022/06/27 09:03:14;;;;;;;22.13;19.93;;;22.10;99.90;;;;;;5026149;28;20455;-68
2022/06/27 09:05:42;;;;;;;22.40;20.03;;;22.40;99.90;;;;;;5027065;28;20468;-68
2022/06/27 09:08:10;;;;;;;22.27;20.47;;;22.50;99.90;;;;;;5024715;28;20467;-68
2022/06/27 09:10:40;;;;;;;21.87;20.10;;;22.80;99.90;;;;;;5025520;28;21559;-68
2022/06/27 09:13:09;;;;;;;23.47;21.47;;;22.90;99.90;;;;;;5026011;28;21023;-69
2022/06/27 09:15:50;;;;;;;22.07;19.87;;;22.80;99.90;;;;;;5027248;28;20464;-68
2022/06/27 09:18:21;;;;;;;23.20;20.90;;;22.20;99.90;;;;;;5023962;28;21016;-67
2022/06/27 09:20:51;;;;;;;21.03;19.10;;;22.10;99.90;;;;;;5023059;28;23029;-68
2022/06/27 09:23:32;;;;;;;22.97;20.83;;;22.50;99.90;;;;;;5026659;28;20469;-70
2022/06/27 09:26:00;;;;;;;23.13;20.83;;;22.70;99.90;;;;;;5027611;28;20474;-68
2022/06/27 09:28:45;;;;;;;22.43;20.20;;;22.30;99.90;;;;;;5029423;28;21168;-67
2022/06/27 09:31:15;;;;;;;21.23;19.47;;;22.60;99.90;;;;;;5030666;28;20561;-67
2022/06/27 09:33:44;;;;;;;22.43;20.50;;;22.20;99.90;;;;;;5029489;28;20562;-71
2022/06/27 09:36:13;;;;;;;23.10;20.87;;;22.40;99.90;;;;;;5031119;28;20468;-70
2022/06/27 09:38:41;;;;;;;22.17;20.13;;;22.50;99.90;;;;;;5029211;28;20635;-70
2022/06/27 09:41:12;;;;;;;21.57;19.80;;;22.60;99.90;;;;;;5030846;28;20483;-68
2022/06/27 09:43:42;;;;;;;21.50;19.77;;;22.40;99.90;;;;;;5030012;28;20452;-68
2022/06/27 09:46:12;;;;;;;21.80;19.93;;;22.00;99.90;;;;;;5029773;28;20525;-67
2022/06/27 09:48:44;;;;;;;22.60;20.90;;;22.20;99.90;;;;;;5031003;28;20459;-68
2022/06/27 09:51:18;;;;;;;22.03;20.13;;;22.00;99.90;;;;;;5030418;28;20484;-67
2022/06/27 09:53:47;;;;;;;22.47;20.53;;;21.60;99.90;;;;;;5031283;28;20467;-67
2022/06/27 09:56:18;;;;;;;21.63;19.80;;;21.70;99.90;;;;;;5030813;28;20467;-68
2022/06/27 09:58:45;;;;;;;22.53;20.73;;;22.10;99.90;;;;;;5030983;28;20533;-67
2022/06/27 10:01:13;;;;;;;23.03;20.73;;;22.10;99.90;;;;;;5030219;28;20830;-68
2022/06/27 10:03:41;;;;;;;22.67;20.50;;;21.90;99.90;;;;;;5030937;28;20549;-67
2022/06/27 10:06:11;;;;;;;23.33;21.27;;;22.40;99.90;;;;;;5037329;28;20827;-67
2022/06/27 10:08:47;;;;;;;24.50;22.03;;;22.40;99.90;;;;;;5054123;28;20560;-67
2022/06/27 10:11:13;;;;;;;23.03;21.20;;;22.80;99.90;;;;;;5059240;28;20459;-67
2022/06/27 10:13:43;;;;;;;24.53;22.33;;;23.00;99.90;;;;;;5033700;28;20971;-67
2022/06/27 10:16:12;;;;;;;23.13;21.33;;;23.20;99.90;;;;;;5029624;28;20928;-68
2022/06/27 10:19:02;;;;;;;23.33;21.20;;;23.20;99.90;;;;;;5030051;28;20886;-68
2022/06/27 10:21:31;;;;;;;22.90;20.90;;;23.40;99.90;;;;;;5029469;28;20839;-67
2022/06/27 10:24:32;;;;;;;21.90;20.07;;;23.60;99.90;;;;;;5029439;28;20475;-68
2022/06/27 10:27:02;;;;;;;22.20;20.50;;;23.90;99.90;;;;;;5029986;28;20974;-70
2022/06/27 10:29:42;;;;;;;22.83;21.10;;;24.00;99.90;;;;;;5029995;28;20813;-70
2022/06/27 10:32:28;;;;;;;21.50;19.97;;;24.20;99.90;;;;;;5029773;28;20503;-67
2022/06/27 10:35:13;;;;;;;21.13;19.70;;;24.40;99.90;;;;;;5029826;28;20477;-68
2022/06/27 10:37:42;;;;;;;21.60;20.00;;;24.50;99.90;;;;;;5029000;28;20459;-69
2022/06/27 10:40:54;;;;;;;22.37;20.67;;;24.80;99.90;;;;;;5029495;28;21072;-70
2022/06/27 10:43:45;;;;;;;22.03;20.53;;;25.00;99.90;;;;;;5029947;28;20464;-69
2022/06/27 10:46:51;;;;;;;22.10;20.50;;;25.00;99.90;;;;;;5029477;28;20451;-67
2022/06/27 10:49:26;;;;;;;21.70;18.70;;;24.80;99.90;;;;;;5029581;28;20476;-67
2022/06/27 10:52:11;;;;;;;20.93;19.30;;;25.00;99.90;;;;;;5029547;28;20439;-67
2022/06/27 10:54:41;;;;;;;21.10;19.40;;;24.70;99.90;;;;;;5030031;28;20510;-66
2022/06/27 10:57:08;;;;;;;21.80;20.20;;;25.00;99.90;;;;;;5030200;28;20459;-68
2022/06/27 11:00:00;;;;;;;19.97;18.67;;;25.00;99.90;;;;;;5028783;28;21033;-67
2022/06/27 11:02:31;;;;;;;22.27;20.67;;;25.30;99.90;;;;;;5029346;28;21100;-66
2022/06/27 11:04:58;;;;;;;19.80;18.43;;;25.70;99.90;;;;;;5029103;28;23107;-67
2022/06/27 11:07:26;;;;;;;20.23;18.97;;;26.30;99.90;;;;;;5028393;28;20486;-67
2022/06/27 11:09:55;;;;;;;19.70;18.37;;;26.30;99.90;;;;;;5029671;28;20491;-69
2022/06/27 11:12:28;;;;;;;21.73;20.23;;;26.90;99.90;;;;;;5028969;28;20986;-68
2022/06/27 11:14:57;;;;;;;23.10;21.27;;;27.10;99.90;;;;;;5030145;28;20495;-66
2022/06/27 11:17:32;;;;;;;23.60;21.83;;;27.50;99.90;;;;;;5029505;28;20905;-66
2022/06/27 11:20:16;;;;;;;22.50;20.87;;;28.40;99.90;;;;;;5028290;28;21235;-67
2022/06/27 11:22:45;;;;;;;22.03;20.40;;;28.80;99.90;;;;;;5029032;28;21146;-66
2022/06/27 11:25:14;;;;;;;21.60;19.63;;;28.50;99.90;;;;;;5028138;28;20966;-66
2022/06/27 11:27:46;;;;;;;20.20;18.90;;;28.50;99.80;;;;;;5029230;28;20812;-66
2022/06/27 11:33:19;;;;;;;21.20;19.43;;;28.20;98.30;;;;;;5028613;28;21100;-66
2022/06/27 11:35:47;;;;;;;20.37;19.17;;;28.50;97.30;;;;;;5028379;28;20468;-67
2022/06/27 11:38:24;;;;;;;22.47;20.47;;;28.10;97.80;;;;;;5029351;28;20499;-67
2022/06/27 11:41:07;;;;;;;21.57;20.00;;;27.80;98.10;;;;;;5027083;28;21266;-68
2022/06/27 11:44:05;;;;;;;22.73;21.03;;;26.90;99.90;;;;;;5027424;28;20467;-66
2022/06/27 11:46:34;;;;;;;21.23;19.67;;;26.80;99.90;;;;;;4966760;28;20485;-68
2022/06/27 11:49:04;;;;;;;20.87;19.40;;;26.70;99.90;;;;;;5014209;28;20518;-66
2022/06/27 11:51:34;;;;;;;20.93;19.50;;;26.50;99.90;;;;;;5026455;28;20488;-66
2022/06/27 11:54:04;;;;;;;22.23;20.63;;;25.70;99.90;;;;;;5027509;28;20468;-68
2022/06/27 11:56:35;;;;;;;20.20;18.90;;;25.80;99.90;;;;;;5027274;28;20476;-67
2022/06/27 11:59:05;;;;;;;21.10;19.60;;;25.70;99.90;;;;;;5027876;28;20855;-65
2022/06/27 12:01:32;;;;;;;21.70;19.97;;;25.50;99.90;;;;;;5027276;28;20487;-67
2022/06/27 12:04:15;;;;;;;19.90;18.37;;;25.70;99.90;;;;;;5027984;28;20995;-66
2022/06/27 12:06:44;;;;;;;21.40;19.70;;;25.70;99.90;;;;;;5028247;28;20471;-65
2022/06/27 12:09:10;;;;;;;21.07;19.57;;;25.90;99.90;;;;;;5027941;28;21612;-68
2022/06/27 12:11:49;;;;;;;21.73;20.27;;;26.10;99.90;;;;;;5025514;28;20467;-68
2022/06/27 12:14:16;;;;;;;22.50;20.90;;;26.10;99.90;;;;;;5031323;28;20450;-65
2022/06/27 12:16:47;;;;;;;23.20;21.37;;;26.60;99.90;;;;;;5053386;28;20493;-65
2022/06/27 12:19:15;;;;;;;22.53;21.13;;;26.90;99.90;;;;;;5052500;28;20462;-68
2022/06/27 12:21:43;;;;;;;21.73;19.97;;;27.20;99.90;;;;;;5026167;28;20484;-67
2022/06/27 12:24:10;;;;;;;22.00;20.50;;;27.80;99.90;;;;;;5026064;28;20486;-67
2022/06/27 12:26:38;;;;;;;20.50;19.13;;;28.30;99.90;;;;;;5026990;28;20478;-66
2022/06/27 12:29:06;;;;;;;20.77;19.47;;;28.60;98.00;;;;;;5026260;28;20467;-66
2022/06/27 12:31:34;;;;;;;20.70;19.37;;;28.70;97.10;;;;;;5026010;28;20792;-67
2022/06/27 12:34:01;;;;;;;22.60;20.90;;;27.50;96.90;;;;;;5026388;28;20781;-68
2022/06/27 12:36:30;;;;;;;22.87;21.27;;;28.30;97.80;;;;;;5037848;28;20463;-67
2022/06/27 12:38:58;;;;;;;21.50;20.00;;;29.00;96.60;;;;;;5050742;28;20459;-67
2022/06/27 12:41:25;;;;;;;19.63;18.47;;;29.30;95.00;;;;;;5039523;28;20489;-66
2022/06/27 12:43:56;;;;;;;20.70;18.83;;;29.50;94.70;;;;;;5025421;28;20474;-68
2022/06/27 12:46:22;;;;;;;18.77;17.30;;;28.80;95.00;;;;;;5027244;28;20990;-65
2022/06/27 12:48:49;;;;;;;18.90;17.80;;;28.40;95.90;;;;;;5026822;28;21100;-67